Ashfield, MA (01330)

3:55 PM EDT on July 29, 2016 (GMT -0400)
Bear Swamp Orchard | | Change Station

Elev 1572 ft 42.55 °N, 72.83 °W | Updated 1 minute ago

Scattered Clouds
Scattered Clouds
79.6 °F
Feels Like 82 °F
N
2.0
Wind Variable Wind from NE
Gusts 6.0 mph

Today
High -- | Low -- °F
--% Chance of Precip.
Yesterday
High -- | Low -- °F
Precip. -- in
Pressure 29.85 in
Visibility 10.0 miles
Clouds Scattered Clouds 4200 ft
Heat Index 82 °F
Dew Point 69 °F
Humidity 71%
Rainfall 0.02 in
Snow Depth Not available.
5:40 AM 8:13 PM
Waning Crescent, 19% visible
METAR KAQW 291952Z AUTO 00000KT 10SM SCT042 28/18 A2985 RMK AO2 SLP106 T02830183
Pressure 29.85 in
Visibility 10.0 miles
Clouds Scattered Clouds 4200 ft
Heat Index 82 °F
Dew Point 69 °F
Humidity 71%
Rainfall 0.02 in
Snow Depth Not available.
5:40 AM 8:13 PM
Waning Crescent, 19% visible
METAR KAQW 291952Z AUTO 00000KT 10SM SCT042 28/18 A2985 RMK AO2 SLP106 T02830183

10-Day Weather Forecast

Almanac

Astronomy

Jul. 29, 2016 Rise Set
Actual Time
Civil Twilight
Nautical Twilight
Astronomical Twilight
Moon
Length of Visible Light
Length of Day
Tomorrow will be .
, % of the Moon is Illuminated

Today's Extremes

State Highs State Lows

Community

WunderPhotos

Upload Photos

1,928,401 photos uploaded!

WunderBlog® & News

Nearby

Air Quality

  Air Quality AQ Index Pollutant
Not available.

Snow Depth

Station Depth Elevation

Earthquake Activity

City Distance Mag. Time & Date
Minimum magnitude displayed is 2.5.

Coastal Water Temperatures

Place Temperature

Stations

Nearby Weather Stations

Station Location Temp. Windchill Dew Point Humidity Wind Precip. Elev Updated Type
                   

Watches & Warnings

There are currently no watches in effect.